Terminal Aerodrome Forecast
Issued by NWS Amarillo, TX

Home | Current Version | Previous Version | Text Only | Print | Product List | Glossary On
Versions: 1 2 3 4 5 6 7 8 9 10 11 12
000
FTUS44 KAMA 221700
TAFGUY
TAF
KGUY 221738Z 2218/2318 20015G21KT P6SM FEW120
     FM222000 19019G27KT P6SM BKN090
     FM230200 20014KT P6SM BKN090
     FM231500 21017G24KT P6SM SKC=

USA.gov is the U.S. government's official web portal to all federal, state and local government web resources and services.